Terminal Aerodrome Forecast
Issued by NWS Rapid City, SD

Home | Current Version | Previous Version | Text Only | Print | Product List | Glossary Off
Versions: 1 2 3 4 5 6 7 8 9 10 11 12 13 14 15 16 17

000
FTUS43 KUNR 290108 AAA
TAFRAP
TAF AMD
KRAP 290108Z 2901/2924 32013KT P6SM SCT040 BKN090
     FM290300 35011KT P6SM -SHRA OVC040
     FM290800 33011KT P6SM -SHRA OVC012=

USA.gov is the U.S. government's official web portal to all federal, state and local government web resources and services.